Pendleton, South Carolina
Current Conditions -  °F | °C
As of 5:54 PM on Thursday 18 Dec 2014 (Local Time) from KCEU Reporting Station
Overcast Overcast  
Wind Chill: 55°   Ceiling: 5500
Heat Index: 55°   Visibility: 10mi
Dew Point: 28°   Wind: 3mph
Humidity: 35%   Direction: 220°SW
Pressure: 30.07"   Gusts: NA
Location:  34.65°N, 82.78°W
Report Text: KCEU 182254Z AUTO 22003KT 10SM OVC055 13/M02 A3007 RMK AO2 SLP183 T01281022
Loading
Personal Weather Stations






























Interactive Weather Map New forecast layout! Learn more

10-Day Weather Forecast

Advertisements
Track Severe Weather on mobile